Weather at Lądowisko Górki

Public forecast

Using degrees Celsius for public forecast. Weather courtesy of forecast.io.

Closest aviation weather report (METAR) to Lądowisko Górki

Closest report is Rzeszów-Jasionka Airport, 32.3 nm (59.9 km) ESE.

2024/05/20 19:00 (retrieved 27 minutes ago)

EPRZ 201900Z 13003KT 080V220 CAVOK 15/13 Q1014

Closest aviation forecast (TAF) to Lądowisko Górki

Closest forecast is Rzeszów-Jasionka Airport, 32.3 nm (59.9 km) ESE.

2024/05/20 18:33 (retrieved 54 minutes ago)

TAF EPRZ 201730Z 2018/2118 VRB02KT CAVOK TEMPO 2018/2020 SHRA BKN040CB PROB40 2100/2103 2000 BR BECMG 2109/2112 13010KT PROB30 TEMPO 2111/2115 VRB15G25KT SHRA BKN040CB